Time;durP1;ratioP1;P1;durP2;ratioP2;P2;SDS_P1;SDS_P2;PMS_P1;PMS_P2;Temp;Humidity;BMP_temperature;BMP_pressure;BME280_temperature;BME280_humidity;BME280_pressure;Samples;Min_cycle;Max_cycle;Signal;HPM_P1;HPM_P2
2022/01/31 00:00:33;;;;;;;10.53;4.27;;;;;;;3.38;85.68;101400.78;2106513;28;20570;-67
2022/01/31 00:01:34;;;;;;;8.40;3.73;;;;;;;3.38;85.70;101393.06;2105830;28;20024;-68
2022/01/31 00:02:35;;;;;;;11.30;3.22;;;;;;;3.38;85.45;101393.06;2097484;28;20054;-68
2022/01/31 00:03:35;;;;;;;9.45;3.83;;;;;;;3.38;85.68;101386.16;2105978;28;20374;-69
2022/01/31 00:04:36;;;;;;;7.73;3.00;;;;;;;3.38;85.61;101375.00;2106601;28;20031;-68
2022/01/31 00:05:36;;;;;;;7.73;3.57;;;;;;;3.40;85.40;101368.09;2105876;28;20025;-69
2022/01/31 00:06:36;;;;;;;5.90;3.00;;;;;;;3.41;85.51;101354.31;2105942;28;20080;-68
2022/01/31 00:07:38;;;;;;;7.80;2.97;;;;;;;3.40;85.94;101344.88;2106467;28;20074;-70
2022/01/31 00:08:40;;;;;;;7.93;3.67;;;;;;;3.40;85.83;101339.72;2106482;28;20082;-68
2022/01/31 00:09:42;;;;;;;8.00;3.22;;;;;;;3.39;85.86;101327.69;2106533;28;20032;-69
2022/01/31 00:10:42;;;;;;;6.25;3.13;;;;;;;3.39;86.05;101319.94;2106609;28;20106;-70
2022/01/31 00:11:52;;;;;;;7.47;3.03;;;;;;;3.39;85.98;101312.19;2106467;28;20024;-68
2022/01/31 00:13:06;;;;;;;10.52;4.07;;;;;;;3.38;86.13;101301.00;2106467;28;20019;-70
2022/01/31 00:14:15;;;;;;;6.85;2.70;;;;;;;3.39;85.85;101300.13;2106443;28;20089;-68
2022/01/31 00:15:15;;;;;;;8.82;3.03;;;;;;;3.42;86.08;101292.38;2105765;28;20052;-68
2022/01/31 00:16:23;;;;;;;8.00;3.33;;;;;;;3.42;86.35;101294.13;2105902;28;20020;-68
2022/01/31 00:17:23;;;;;;;8.82;3.55;;;;;;;3.44;86.24;101292.38;2106463;28;20031;-68
2022/01/31 00:18:23;;;;;;;6.60;2.97;;;;;;;3.43;86.05;101286.38;2106431;28;20066;-68
2022/01/31 00:19:24;;;;;;;11.30;3.70;;;;;;;3.44;85.93;101282.06;2106345;28;20024;-70
2022/01/31 00:20:24;;;;;;;8.37;3.67;;;;;;;3.46;85.96;101285.50;2106363;28;20115;-70
2022/01/31 00:21:24;;;;;;;7.17;3.63;;;;;;;3.48;85.80;101283.75;2106398;28;20028;-68
2022/01/31 00:22:24;;;;;;;7.33;3.13;;;;;;;3.51;86.32;101282.88;2105746;28;20111;-68
2022/01/31 00:23:25;;;;;;;8.10;3.53;;;;;;;3.49;86.28;101269.97;2105927;28;20723;-70
2022/01/31 00:24:25;;;;;;;7.40;3.17;;;;;;;3.50;86.01;101271.72;2106449;28;20023;-70
2022/01/31 00:25:25;;;;;;;6.63;3.13;;;;;;;3.51;86.38;101267.38;2106464;28;20084;-70
2022/01/31 00:26:26;;;;;;;8.43;2.90;;;;;;;3.52;86.14;101269.97;2105784;28;20067;-69
2022/01/31 00:27:26;;;;;;;10.13;3.87;;;;;;;3.55;86.09;101269.94;2097332;28;20516;-67
2022/01/31 00:28:26;;;;;;;10.43;4.10;;;;;;;3.57;86.13;101265.66;2105728;28;20374;-68
2022/01/31 00:29:27;;;;;;;7.67;3.23;;;;;;;3.58;86.36;101264.78;2106448;28;20031;-70
2022/01/31 00:30:27;;;;;;;6.77;2.83;;;;;;;3.59;86.45;101261.31;2106427;28;20028;-69
2022/01/31 00:31:27;;;;;;;10.10;3.80;;;;;;;3.60;86.11;101257.84;2106351;28;20284;-68
2022/01/31 00:32:29;;;;;;;6.57;2.77;;;;;;;3.61;86.04;101250.97;2106479;28;20024;-68
2022/01/31 00:33:29;;;;;;;8.13;3.08;;;;;;;3.60;86.72;101242.38;2106476;28;20651;-69
2022/01/31 00:34:31;;;;;;;10.77;3.33;;;;;;;3.59;86.70;101234.63;2105766;28;20071;-70
2022/01/31 00:35:31;;;;;;;;;;;;;;;3.60;86.95;101237.22;2097910;28;20024;-68
2022/01/31 00:36:32;;;;;;;6.35;2.90;;;;;;;3.59;86.68;101225.19;2105754;28;20393;-67
2022/01/31 00:37:32;;;;;;;4.87;2.40;;;;;;;3.59;87.19;101219.16;2105801;28;20027;-69
2022/01/31 00:38:32;;;;;;;7.17;2.73;;;;;;;3.58;87.67;101217.44;2106321;28;20027;-69
2022/01/31 00:39:35;;;;;;;7.93;3.17;;;;;;;3.56;87.73;101204.56;2106510;28;20062;-68
2022/01/31 00:40:41;;;;;;;8.02;3.67;;;;;;;3.56;88.03;101212.28;2105661;28;20068;-68
2022/01/31 00:41:41;;;;;;;11.57;4.32;;;;;;;3.55;88.46;101208.00;2105804;28;20070;-68
2022/01/31 00:42:42;;;;;;;8.57;3.53;;;;;;;3.55;88.35;101208.00;2106489;28;20574;-69
2022/01/31 00:43:44;;;;;;;6.73;3.20;;;;;;;3.54;88.54;101190.81;2105678;28;20461;-68
2022/01/31 00:44:51;;;;;;;7.10;2.70;;;;;;;3.55;88.44;101187.34;2105877;28;20023;-69
2022/01/31 00:46:00;;;;;;;7.32;3.85;;;;;;;3.53;89.00;101178.78;2105674;28;20394;-67
2022/01/31 00:47:04;;;;;;;9.05;4.00;;;;;;;3.52;89.79;101174.47;2106398;28;20024;-69
2022/01/31 00:48:14;;;;;;;5.85;3.15;;;;;;;3.50;89.87;101162.44;2106338;28;20032;-69
2022/01/31 00:49:35;;;;;;;8.68;2.80;;;;;;;3.47;90.46;101153.00;2106326;28;20032;-67
2022/01/31 00:50:39;;;;;;;14.20;4.30;;;;;;;3.42;91.19;101159.94;2106246;28;20124;-69
2022/01/31 00:51:39;;;;;;;8.13;2.50;;;;;;;3.38;91.86;101151.34;2105609;28;20024;-69
2022/01/31 00:52:41;;;;;;;5.70;2.57;;;;;;;3.34;92.60;101158.28;2105770;28;20035;-70
2022/01/31 00:53:43;;;;;;;7.85;3.70;;;;;;;3.29;93.53;101148.84;2105624;28;20111;-66
2022/01/31 00:54:44;;;;;;;5.85;3.60;;;;;;;3.25;93.84;101142.84;2105783;28;20399;-67
2022/01/31 00:55:44;;;;;;;;;;;;;;;3.22;93.88;101141.13;2106767;28;20016;-69
2022/01/31 00:56:45;;;;;;;10.27;4.07;;;;;;;3.19;95.15;101132.59;2106199;28;20399;-67
2022/01/31 00:57:46;;;;;;;9.07;3.55;;;;;;;3.16;95.36;101128.31;2105882;28;20051;-68
2022/01/31 00:58:46;;;;;;;6.70;2.97;;;;;;;3.14;96.44;101121.41;2105852;28;20453;-66
2022/01/31 00:59:50;;;;;;;8.73;3.00;;;;;;;3.13;96.75;101122.28;2105706;28;20024;-68
2022/01/31 01:00:51;;;;;;;12.45;4.25;;;;;;;3.11;97.02;101114.56;2105905;28;20016;-68
2022/01/31 01:01:51;;;;;;;8.70;3.37;;;;;;;3.08;97.25;101104.28;2105836;28;20043;-70
2022/01/31 01:02:52;;;;;;;7.60;3.13;;;;;;;3.08;97.44;101104.28;2105803;28;20028;-68
2022/01/31 01:03:52;;;;;;;8.00;3.25;;;;;;;3.08;97.52;101102.56;2106375;28;20042;-69
2022/01/31 01:04:53;;;;;;;7.83;2.73;;;;;;;3.07;97.91;101093.13;2106565;28;20480;-69
2022/01/31 01:05:53;;;;;;;8.55;3.00;;;;;;;3.07;98.19;101103.44;2107872;28;20089;-69
2022/01/31 01:06:53;;;;;;;6.83;2.97;;;;;;;3.08;98.52;101097.41;2107219;28;20027;-68
2022/01/31 01:07:54;;;;;;;10.60;4.40;;;;;;;3.09;98.59;101093.09;2107261;28;20020;-66
2022/01/31 01:08:54;;;;;;;7.07;2.97;;;;;;;3.08;98.81;101094.81;2107924;28;20031;-68
2022/01/31 01:09:54;;;;;;;8.10;3.03;;;;;;;3.08;98.91;101089.66;2107212;28;20142;-68
2022/01/31 01:10:54;;;;;;;8.03;2.93;;;;;;;3.08;99.81;101092.25;2107321;28;20024;-68
2022/01/31 01:11:54;;;;;;;10.90;3.47;;;;;;;3.08;99.24;101081.91;2107822;28;20020;-68
2022/01/31 01:12:55;;;;;;;6.83;3.40;;;;;;;3.09;99.55;101081.03;2107780;28;20028;-69
2022/01/31 01:13:55;;;;;;;7.30;3.07;;;;;;;3.10;99.62;101071.59;2107831;28;20024;-68
2022/01/31 01:14:55;;;;;;;6.90;2.93;;;;;;;3.09;100.00;101065.56;2107105;28;20053;-68
2022/01/31 01:15:56;;;;;;;6.40;3.00;;;;;;;3.11;99.90;101070.72;2107196;28;20046;-67
2022/01/31 01:16:56;;;;;;;5.83;2.77;;;;;;;3.08;99.83;101063.88;2107150;28;20024;-67
2022/01/31 01:17:58;;;;;;;9.98;3.05;;;;;;;3.07;100.00;101054.44;2107279;28;20091;-67
2022/01/31 01:18:58;;;;;;;;;;;;;;;3.07;100.00;101056.13;2107460;28;20020;-67
2022/01/31 01:19:58;;;;;;;8.10;3.00;;;;;;;3.06;100.00;101045.00;2107058;28;19966;-68
2022/01/31 01:20:58;;;;;;;5.47;2.90;;;;;;;3.05;100.00;101051.00;2107835;28;20408;-69
2022/01/31 01:21:59;;;;;;;5.57;3.00;;;;;;;3.05;100.00;101052.72;2107759;28;20473;-68
2022/01/31 01:22:59;;;;;;;6.82;2.22;;;;;;;3.02;100.00;101029.53;2107799;28;20047;-67
2022/01/31 01:24:00;;;;;;;6.80;3.07;;;;;;;2.99;100.00;101033.00;2107740;28;20024;-66
2022/01/31 01:25:03;;;;;;;9.63;3.03;;;;;;;2.99;100.00;101029.56;2107734;28;20032;-67
2022/01/31 01:26:04;;;;;;;9.43;3.65;;;;;;;2.97;100.00;101024.41;2107695;28;20035;-67
2022/01/31 01:27:04;;;;;;;7.97;3.77;;;;;;;2.94;100.00;101027.00;2107006;28;20032;-68
2022/01/31 01:28:04;;;;;;;12.45;3.10;;;;;;;2.93;100.00;101017.56;2107045;28;20793;-69
2022/01/31 01:29:05;;;;;;;12.93;3.20;;;;;;;2.91;100.00;101003.84;2107160;28;20175;-67
2022/01/31 01:30:06;;;;;;;4.47;2.33;;;;;;;2.90;100.00;101008.16;2107034;28;20529;-67
2022/01/31 01:31:06;;;;;;;8.05;2.97;;;;;;;2.92;100.00;101005.56;2098646;28;20028;-66
2022/01/31 01:32:07;;;;;;;7.37;2.90;;;;;;;2.91;100.00;100999.53;2107078;28;20020;-66
2022/01/31 01:33:11;;;;;;;8.27;3.10;;;;;;;2.93;100.00;100996.94;2107743;28;20454;-67
2022/01/31 01:34:12;;;;;;;8.48;2.80;;;;;;;2.93;100.00;100990.09;2107666;28;20099;-66
2022/01/31 01:35:12;;;;;;;7.53;2.22;;;;;;;2.94;100.00;100993.50;2107754;28;20035;-66
2022/01/31 01:36:13;;;;;;;8.57;3.33;;;;;;;2.96;100.00;100994.34;2107013;28;20046;-66
2022/01/31 01:37:14;;;;;;;9.88;2.92;;;;;;;2.98;100.00;100989.19;2107129;28;20020;-65
2022/01/31 01:38:16;;;;;;;7.00;2.70;;;;;;;2.96;100.00;100981.47;2107689;28;20111;-64
2022/01/31 01:39:17;;;;;;;11.85;2.85;;;;;;;2.97;100.00;100983.16;2107652;28;20024;-65
2022/01/31 01:40:17;;;;;;;6.30;3.00;;;;;;;2.95;100.00;100966.88;2107761;28;20027;-65
2022/01/31 01:41:17;;;;;;;7.10;3.47;;;;;;;2.93;100.00;100964.31;2107650;28;20485;-64
2022/01/31 01:42:17;;;;;;;7.23;2.97;;;;;;;2.94;100.00;100967.72;2107633;28;20028;-64
2022/01/31 01:43:18;;;;;;;5.17;2.73;;;;;;;2.94;100.00;100967.72;2107666;28;20028;-64
2022/01/31 01:44:18;;;;;;;10.77;4.00;;;;;;;2.94;100.00;100958.25;2107506;28;20050;-64
2022/01/31 01:45:18;;;;;;;10.97;3.53;;;;;;;2.95;100.00;100953.97;2107569;28;20497;-63
2022/01/31 01:46:19;;;;;;;9.13;3.07;;;;;;;2.96;100.00;100953.09;2107644;28;20481;-64
2022/01/31 01:47:24;;;;;;;7.40;2.83;;;;;;;2.97;100.00;100959.97;2107617;28;20024;-63
2022/01/31 01:48:24;;;;;;;9.77;2.97;;;;;;;2.97;100.00;100954.81;2107590;28;20502;-64
2022/01/31 01:49:25;;;;;;;10.17;3.07;;;;;;;2.97;100.00;100957.38;2107685;28;20030;-64
2022/01/31 01:50:25;;;;;;;7.73;2.67;;;;;;;2.97;100.00;100957.38;2107536;28;20509;-64
2022/01/31 01:51:26;;;;;;;7.05;2.38;;;;;;;2.97;100.00;100941.91;2107520;28;20465;-65
2022/01/31 01:52:26;;;;;;;6.80;3.67;;;;;;;2.98;100.00;100940.19;2107620;28;20062;-64
2022/01/31 01:53:26;;;;;;;6.97;2.73;;;;;;;2.99;100.00;100924.72;2107615;28;20335;-65
2022/01/31 01:54:27;;;;;;;5.40;2.67;;;;;;;3.00;100.00;100925.53;2107574;28;20116;-66
2022/01/31 01:55:27;;;;;;;5.60;3.00;;;;;;;2.99;100.00;100919.56;2107574;28;20532;-65
2022/01/31 01:56:28;;;;;;;6.30;2.85;;;;;;;3.00;100.00;100918.69;2107300;28;20044;-65
2022/01/31 01:57:28;;;;;;;8.05;2.92;;;;;;;3.00;100.00;100912.66;2107602;28;20093;-66
2022/01/31 01:58:37;;;;;;;9.10;4.30;;;;;;;3.01;100.00;100911.81;2107509;28;20024;-65
2022/01/31 01:59:40;;;;;;;6.70;3.78;;;;;;;3.01;100.00;100897.19;2107475;28;20077;-65
2022/01/31 02:01:59;;;;;;;5.70;2.78;;;;;;;3.05;100.00;100896.28;2107568;28;20106;-65
2022/01/31 02:02:59;;;;;;;6.95;2.80;;;;;;;3.08;100.00;100888.50;2107452;28;20457;-65
2022/01/31 02:04:00;;;;;;;5.93;2.30;;;;;;;3.12;100.00;100884.19;2107473;28;20484;-65
2022/01/31 02:05:00;;;;;;;9.40;2.50;;;;;;;3.13;100.00;100873.00;2107470;28;20020;-65
2022/01/31 02:06:06;;;;;;;4.93;2.45;;;;;;;3.16;100.00;100874.69;2107337;28;20074;-65
2022/01/31 02:07:06;;;;;;;6.93;2.70;;;;;;;3.18;100.00;100867.81;2107493;28;20031;-65
2022/01/31 02:08:07;;;;;;;6.07;2.50;;;;;;;3.18;100.00;100870.38;2107428;28;20024;-66
2022/01/31 02:09:07;;;;;;;4.40;2.60;;;;;;;3.18;100.00;100855.75;2107529;28;20059;-65
2022/01/31 02:10:08;;;;;;;10.07;3.37;;;;;;;3.20;100.00;100866.03;2107446;28;20032;-66
2022/01/31 02:11:10;;;;;;;7.95;3.38;;;;;;;3.22;100.00;100854.84;2107425;28;20020;-64
2022/01/31 02:12:11;;;;;;;8.85;2.60;;;;;;;3.23;100.00;100855.69;2107375;28;20469;-66
2022/01/31 02:13:15;;;;;;;7.63;2.22;;;;;;;3.24;100.00;100849.66;2107380;28;20036;-65
2022/01/31 02:14:15;;;;;;;6.28;2.72;;;;;;;3.25;100.00;100856.50;2107457;28;20028;-65
2022/01/31 02:15:16;;;;;;;5.73;2.27;;;;;;;3.26;100.00;100855.66;2107523;28;20103;-65
2022/01/31 02:16:17;;;;;;;6.28;2.22;;;;;;;3.28;100.00;100856.47;2106684;28;20038;-66
2022/01/31 02:17:18;;;;;;;;;;;;;;;3.30;100.00;100854.75;2107262;28;20023;-65
2022/01/31 02:18:22;;;;;;;4.43;2.10;;;;;;;3.30;100.00;100852.19;2106734;28;20380;-64
2022/01/31 02:19:23;;;;;;;3.95;2.08;;;;;;;3.31;100.00;100838.41;2106768;28;20077;-66
2022/01/31 02:20:23;;;;;;;7.27;2.60;;;;;;;3.32;100.00;100837.53;2106684;28;20073;-65
2022/01/31 02:21:23;;;;;;;5.90;2.40;;;;;;;3.32;100.00;100839.25;2098310;28;20489;-67
2022/01/31 02:22:24;;;;;;;5.40;2.27;;;;;;;3.32;100.00;100829.78;2106613;28;20043;-66
2022/01/31 02:23:26;;;;;;;4.87;1.97;;;;;;;3.33;100.00;100821.19;2107293;28;20031;-65
2022/01/31 02:24:28;;;;;;;4.75;2.33;;;;;;;3.34;100.00;100817.72;2107247;28;20044;-65
2022/01/31 02:25:28;;;;;;;5.63;2.10;;;;;;;3.38;100.00;100812.53;2107200;28;20443;-63
2022/01/31 02:26:29;;;;;;;7.07;2.67;;;;;;;3.39;100.00;100820.22;2107174;28;20032;-65
2022/01/31 02:27:35;;;;;;;5.77;2.10;;;;;;;3.41;100.00;100823.66;2107289;28;20066;-65
2022/01/31 02:28:37;;;;;;;5.75;2.25;;;;;;;3.41;100.00;100817.63;2107168;28;20388;-67
2022/01/31 02:29:38;;;;;;;4.60;2.03;;;;;;;3.43;100.00;100813.31;2107156;28;20099;-66
2022/01/31 02:30:38;;;;;;;6.60;2.22;;;;;;;3.44;100.00;100828.78;2106573;28;20027;-67
2022/01/31 02:31:44;;;;;;;4.20;1.90;;;;;;;3.46;100.00;100831.34;2106625;28;20024;-66
2022/01/31 02:32:44;;;;;;;3.95;2.03;;;;;;;3.46;100.00;100832.19;2107126;28;20023;-65
2022/01/31 02:33:45;;;;;;;6.72;2.90;;;;;;;3.47;100.00;100838.22;2107237;28;20020;-66
2022/01/31 02:34:45;;;;;;;2.93;1.80;;;;;;;3.47;100.00;100844.22;2107197;28;20052;-66
2022/01/31 02:35:51;;;;;;;4.17;2.43;;;;;;;3.48;100.00;100834.75;2107240;28;20022;-66
2022/01/31 02:36:52;;;;;;;6.88;2.20;;;;;;;3.47;100.00;100828.75;2106489;28;20032;-66
2022/01/31 02:37:52;;;;;;;4.70;1.97;;;;;;;3.47;100.00;100828.75;2098125;28;20024;-66
2022/01/31 02:38:52;;;;;;;8.10;3.13;;;;;;;3.50;100.00;100827.84;2097981;28;20093;-66
2022/01/31 02:39:52;;;;;;;4.70;2.00;;;;;;;3.50;100.00;100827.00;2106529;28;20038;-67
2022/01/31 02:40:53;;;;;;;4.90;1.80;;;;;;;3.51;100.00;100819.22;2107117;28;20333;-66
2022/01/31 02:41:53;;;;;;;8.63;2.85;;;;;;;3.51;100.00;100821.81;2107106;28;20036;-65
2022/01/31 02:42:54;;;;;;;4.97;2.10;;;;;;;3.53;100.00;100814.06;2107107;28;20063;-66
2022/01/31 02:43:54;;;;;;;5.43;2.17;;;;;;;3.53;100.00;100812.34;2107197;28;20073;-67
2022/01/31 02:44:55;;;;;;;6.55;2.40;;;;;;;3.53;100.00;100814.91;2107035;28;20028;-66
2022/01/31 02:45:56;;;;;;;7.47;2.30;;;;;;;3.55;100.00;100809.72;2107038;28;20474;-66
2022/01/31 02:46:57;;;;;;;2.25;1.60;;;;;;;3.57;100.00;100811.41;2107087;28;20044;-66
2022/01/31 02:47:59;;;;;;;4.22;1.50;;;;;;;3.59;100.00;100801.91;2107075;28;20431;-68
2022/01/31 02:48:59;;;;;;;3.45;1.98;;;;;;;3.61;100.00;100804.47;2107087;28;20016;-66
2022/01/31 02:50:02;;;;;;;4.30;1.90;;;;;;;3.62;100.00;100789.84;2107184;28;20020;-67
2022/01/31 02:51:08;;;;;;;4.78;2.45;;;;;;;3.68;100.00;100787.16;2106999;28;20016;-67
2022/01/31 02:52:12;;;;;;;3.58;1.98;;;;;;;3.70;100.00;100785.44;2107156;28;20456;-67
2022/01/31 02:53:22;;;;;;;3.03;1.73;;;;;;;3.72;100.00;100786.25;2106406;28;20062;-67
2022/01/31 02:54:24;;;;;;;5.40;2.88;;;;;;;3.73;100.00;100782.81;2106637;28;20039;-68
2022/01/31 02:55:24;;;;;;;3.15;1.75;;;;;;;3.76;100.00;100787.06;2107054;28;20252;-67
2022/01/31 02:56:24;;;;;;;4.33;2.13;;;;;;;3.79;100.00;100777.53;2106855;28;20524;-67
2022/01/31 02:57:25;;;;;;;5.23;1.93;;;;;;;3.80;100.00;100778.41;2106403;28;20046;-67
2022/01/31 02:58:27;;;;;;;5.75;2.00;;;;;;;3.95;100.00;100778.16;2106381;28;20062;-68
2022/01/31 02:59:28;;;;;;;1.58;1.40;;;;;;;5.81;100.00;100782.31;2107011;28;20411;-66
2022/01/31 03:00:28;;;;;;;6.47;2.23;;;;;;;6.32;100.00;100772.50;2107040;28;20043;-67
2022/01/31 03:01:31;;;;;;;5.17;2.37;;;;;;;6.39;100.00;100774.03;2107019;28;20077;-68
2022/01/31 03:02:31;;;;;;;4.30;1.80;;;;;;;6.30;99.73;100769.94;2106973;28;20031;-68
2022/01/31 03:03:32;;;;;;;4.83;2.30;;;;;;;5.74;100.00;100770.41;2107022;28;20042;-67
2022/01/31 03:04:32;;;;;;;6.43;2.23;;;;;;;4.58;100.00;100767.63;2107041;28;20072;-67
2022/01/31 03:05:33;;;;;;;2.50;1.50;;;;;;;4.27;100.00;100768.16;2106960;28;20024;-67
2022/01/31 03:06:34;;;;;;;3.30;2.28;;;;;;;4.17;100.00;100766.63;2106958;28;20431;-67
2022/01/31 03:07:36;;;;;;;4.32;1.65;;;;;;;4.17;100.00;100759.72;2106903;28;20079;-66
2022/01/31 03:08:36;;;;;;;6.32;2.20;;;;;;;4.17;100.00;100764.06;2106868;28;20032;-67
2022/01/31 03:09:36;;;;;;;5.77;2.13;;;;;;;4.19;100.00;100772.63;2106300;28;20032;-67
2022/01/31 03:10:37;;;;;;;3.73;2.00;;;;;;;4.21;100.00;100788.94;2106406;28;20024;-68
2022/01/31 03:11:37;;;;;;;2.78;2.00;;;;;;;4.25;100.00;100785.44;2106948;28;20028;-67
2022/01/31 03:12:37;;;;;;;4.90;1.90;;;;;;;4.29;100.00;100766.41;2106912;28;20035;-65
2022/01/31 03:13:37;;;;;;;3.57;2.30;;;;;;;4.35;100.00;100776.63;2106899;28;20523;-65
2022/01/31 03:14:39;;;;;;;4.53;1.70;;;;;;;4.36;100.00;100788.69;2106864;28;20388;-66
2022/01/31 03:15:40;;;;;;;5.53;1.65;;;;;;;4.34;100.00;100790.44;2106895;28;20016;-66
2022/01/31 03:16:45;;;;;;;3.58;1.95;;;;;;;4.34;100.00;100782.69;2106893;28;20465;-66
2022/01/31 03:17:49;;;;;;;3.97;2.08;;;;;;;4.35;100.00;100775.78;2106850;28;20024;-67
2022/01/31 03:18:50;;;;;;;5.20;2.53;;;;;;;4.34;100.00;100771.47;2106175;28;20493;-67
2022/01/31 03:19:53;;;;;;;5.60;2.30;;;;;;;4.34;100.00;100771.47;2097825;28;20055;-66
2022/01/31 03:20:54;;;;;;;3.72;2.35;;;;;;;4.33;100.00;100772.38;2106187;28;20016;-68
2022/01/31 03:21:54;;;;;;;4.17;2.27;;;;;;;4.33;100.00;100764.63;2106897;28;20039;-67
2022/01/31 03:22:54;;;;;;;4.37;1.97;;;;;;;4.34;100.00;100759.44;2106825;28;20473;-66
2022/01/31 03:23:54;;;;;;;6.93;2.40;;;;;;;4.35;100.00;100761.13;2106824;28;20031;-66
2022/01/31 03:24:55;;;;;;;5.27;2.03;;;;;;;4.35;100.00;100744.78;2106850;28;20458;-65
2022/01/31 03:25:55;;;;;;;4.80;2.10;;;;;;;4.35;100.00;100730.13;2106767;28;20051;-67
2022/01/31 03:26:55;;;;;;;6.97;2.27;;;;;;;4.41;100.00;100746.41;2106718;28;20080;-67
2022/01/31 03:27:56;;;;;;;3.80;2.43;;;;;;;4.41;100.00;100742.06;2106347;28;20020;-65
2022/01/31 03:28:56;;;;;;;6.30;2.87;;;;;;;4.43;100.00;100742.06;2106879;28;20469;-66
2022/01/31 03:29:56;;;;;;;7.57;2.40;;;;;;;4.48;100.00;100760.94;2106833;28;20070;-68
2022/01/31 03:30:57;;;;;;;8.13;2.67;;;;;;;4.55;100.00;100757.31;2106812;28;20270;-67
2022/01/31 03:31:57;;;;;;;4.30;2.20;;;;;;;4.56;100.00;100760.78;2106819;28;20035;-65
2022/01/31 03:32:57;;;;;;;4.77;1.80;;;;;;;4.63;100.00;100750.28;2106748;28;20469;-66
2022/01/31 03:33:58;;;;;;;3.40;1.80;;;;;;;4.61;100.00;100746.88;2106781;28;20027;-67
2022/01/31 03:34:58;;;;;;;6.93;2.23;;;;;;;4.62;100.00;100756.34;2106595;28;20103;-66
2022/01/31 03:35:59;;;;;;;4.32;1.73;;;;;;;4.64;100.00;100752.00;2106045;28;20059;-66
2022/01/31 03:37:00;;;;;;;4.40;1.80;;;;;;;4.61;100.00;100744.28;2106209;28;20050;-67
2022/01/31 03:38:00;;;;;;;6.03;1.80;;;;;;;4.58;100.00;100736.59;2106761;28;20016;-66
2022/01/31 03:39:00;;;;;;;4.67;1.80;;;;;;;4.54;100.00;100739.25;2106006;28;20036;-66
2022/01/31 03:40:01;;;;;;;3.93;1.90;;;;;;;4.54;100.00;100737.53;2106162;28;20019;-67
2022/01/31 03:41:01;;;;;;;6.50;2.22;;;;;;;4.56;100.00;100740.97;2106757;28;20444;-65
2022/01/31 03:42:02;;;;;;;5.60;2.13;;;;;;;4.59;100.00;100707.28;2106727;28;20035;-66
2022/01/31 03:43:02;;;;;;;6.20;1.77;;;;;;;4.63;100.00;100703.75;2106054;28;20016;-66
2022/01/31 03:44:02;;;;;;;5.70;1.67;;;;;;;4.66;100.00;100712.34;2106054;28;20282;-67
2022/01/31 03:45:05;;;;;;;8.50;2.23;;;;;;;4.63;100.00;100711.50;2106027;28;20491;-66
2022/01/31 03:46:06;;;;;;;8.27;2.20;;;;;;;4.66;100.00;100718.38;2106576;28;20024;-65
2022/01/31 03:47:06;;;;;;;5.37;1.70;;;;;;;4.66;100.00;100727.84;2106666;28;20024;-66
2022/01/31 03:48:07;;;;;;;7.53;2.13;;;;;;;4.62;100.00;100714.97;2106070;28;20093;-67
2022/01/31 03:49:08;;;;;;;;;;;;;;;4.62;100.00;100714.16;2098062;28;20119;-65
2022/01/31 03:50:08;;;;;;;4.50;1.60;;;;;;;4.61;100.00;100728.78;2106040;28;19908;-68
2022/01/31 03:51:09;;;;;;;3.93;1.60;;;;;;;4.68;100.00;100721.75;2105939;28;20082;-67
2022/01/31 03:52:10;;;;;;;5.70;1.88;;;;;;;4.70;100.00;100716.56;2106060;28;20128;-67
2022/01/31 03:53:11;;;;;;;4.30;1.87;;;;;;;4.68;100.00;100726.09;2106697;28;20043;-67
2022/01/31 03:54:11;;;;;;;6.15;1.65;;;;;;;4.69;100.00;100713.13;2106652;28;20039;-66
2022/01/31 03:55:13;;;;;;;4.73;1.60;;;;;;;4.72;100.00;100722.56;2106005;28;20509;-66
2022/01/31 03:56:14;;;;;;;7.95;2.42;;;;;;;4.70;100.00;100719.16;2105867;28;20036;-66
2022/01/31 03:57:15;;;;;;;4.72;1.45;;;;;;;4.74;100.00;100723.38;2106567;28;20023;-66
2022/01/31 03:58:15;;;;;;;5.30;1.80;;;;;;;4.82;100.00;100713.72;2106557;28;20103;-67
2022/01/31 03:59:16;;;;;;;3.63;1.42;;;;;;;4.83;100.00;100715.41;2106531;28;20054;-65
2022/01/31 04:00:17;;;;;;;7.27;1.57;;;;;;;4.84;100.00;100724.91;2106544;28;20032;-68
2022/01/31 04:01:17;;;;;;;7.97;2.42;;;;;;;4.83;100.00;100725.75;2106546;28;20016;-67
2022/01/31 04:02:18;;;;;;;8.30;1.90;;;;;;;4.89;100.00;100723.06;2105835;28;20034;-66
2022/01/31 04:03:18;;;;;;;8.73;1.90;;;;;;;4.95;100.00;100731.56;2105897;28;20020;-65
2022/01/31 04:04:18;;;;;;;2.27;1.40;;;;;;;4.96;100.00;100722.94;2106459;28;20024;-66
2022/01/31 04:05:18;;;;;;;3.83;2.00;;;;;;;5.05;100.00;100703.78;2106492;28;20028;-65
2022/01/31 04:06:20;;;;;;;4.60;1.57;;;;;;;5.14;100.00;100717.34;2106529;28;20023;-66
2022/01/31 04:07:20;;;;;;;5.50;1.40;;;;;;;5.24;100.00;100717.19;2105903;28;20115;-65
2022/01/31 04:08:20;;;;;;;5.67;1.57;;;;;;;5.21;100.00;100712.94;2097590;28;20032;-67
2022/01/31 04:09:20;;;;;;;8.07;1.50;;;;;;;5.20;100.00;100718.13;2097303;28;20032;-65
2022/01/31 04:10:21;;;;;;;4.00;1.73;;;;;;;5.19;100.00;100709.50;2097541;28;20062;-66
2022/01/31 04:11:21;;;;;;;5.33;1.70;;;;;;;5.17;100.00;100734.56;2105920;28;20080;-67
2022/01/31 04:12:21;;;;;;;3.33;1.47;;;;;;;5.15;100.00;100723.41;2105870;28;20557;-67
2022/01/31 04:13:22;;;;;;;6.65;1.45;;;;;;;5.11;100.00;100722.63;2105876;28;20032;-65
2022/01/31 04:14:26;;;;;;;5.40;1.80;;;;;;;5.15;100.00;100716.50;2105936;28;20048;-67
2022/01/31 04:15:26;;;;;;;9.73;1.90;;;;;;;5.18;100.00;100712.13;2105844;28;20035;-67
2022/01/31 04:16:26;;;;;;;5.10;1.63;;;;;;;5.15;100.00;100713.91;2106533;28;20020;-68
2022/01/31 04:17:26;;;;;;;7.47;2.00;;;;;;;5.15;100.00;100708.75;2106611;28;20055;-66
2022/01/31 04:18:27;;;;;;;8.13;1.63;;;;;;;5.15;100.00;100711.31;2106451;28;20433;-67
2022/01/31 04:19:27;;;;;;;4.87;2.20;;;;;;;5.13;100.00;100707.91;2106505;28;20102;-68
2022/01/31 04:20:27;;;;;;;6.17;2.00;;;;;;;5.07;100.00;100702.88;2105888;28;20062;-68
2022/01/31 04:21:28;;;;;;;4.00;1.63;;;;;;;5.04;100.00;100692.59;2105813;28;20572;-67
2022/01/31 04:22:31;;;;;;;4.45;1.65;;;;;;;5.12;100.00;100695.88;2106551;28;20035;-67
2022/01/31 04:23:32;;;;;;;6.93;1.23;;;;;;;5.17;100.00;100698.34;2106644;28;20028;-68
2022/01/31 04:24:34;;;;;;;5.73;1.67;;;;;;;5.21;100.00;100699.13;2106499;28;20028;-66
2022/01/31 04:25:54;;;;;;;7.47;1.55;;;;;;;5.24;99.55;100702.47;2105730;28;20024;-67
2022/01/31 04:26:59;;;;;;;4.25;1.17;;;;;;;5.24;100.00;100688.72;2105947;28;20023;-66
2022/01/31 04:28:04;;;;;;;7.70;1.85;;;;;;;5.21;99.81;100693.94;2105688;28;20016;-67
2022/01/31 04:29:07;;;;;;;5.13;0.90;;;;;;;5.20;100.00;100698.25;2105780;28;20030;-67
2022/01/31 04:30:09;;;;;;;3.03;0.90;;;;;;;5.23;99.72;100694.75;2106473;28;20345;-68
2022/01/31 04:32:22;;;;;;;4.95;1.83;;;;;;;5.23;98.17;100694.75;2106638;28;20034;-68
2022/01/31 04:33:23;;;;;;;2.77;1.27;;;;;;;5.25;100.00;100693.84;2106601;28;20020;-66
2022/01/31 04:34:24;;;;;;;;;;;;;;;5.24;98.99;100701.66;2105936;28;20055;-66
2022/01/31 04:35:24;;;;;;;4.22;1.00;;;;;;;5.24;98.84;100705.06;2105898;28;19908;-65
2022/01/31 04:36:24;;;;;;;4.57;0.97;;;;;;;5.22;99.30;100693.06;2106427;28;20023;-68
2022/01/31 04:37:25;;;;;;;3.57;1.33;;;;;;;5.20;99.28;100682.75;2106404;28;20028;-67
2022/01/31 04:38:26;;;;;;;5.30;1.73;;;;;;;5.25;98.57;100690.41;2106493;28;20028;-67
2022/01/31 04:39:28;;;;;;;3.83;1.23;;;;;;;5.26;99.20;100655.88;2105775;28;20036;-66
2022/01/31 04:40:28;;;;;;;2.97;1.13;;;;;;;5.29;97.90;100686.88;2107039;28;20085;-66
2022/01/31 04:41:29;;;;;;;8.13;1.30;;;;;;;5.25;98.23;100691.28;2108179;28;20036;-68
2022/01/31 04:42:29;;;;;;;8.57;2.03;;;;;;;5.17;97.42;100706.13;2108056;28;20099;-66
2022/01/31 04:43:29;;;;;;;5.83;1.50;;;;;;;5.15;97.70;100685.44;2108068;28;20459;-66
2022/01/31 04:44:30;;;;;;;9.30;1.83;;;;;;;5.12;97.34;100701.03;2108067;28;20024;-66
2022/01/31 04:45:30;;;;;;;4.97;1.40;;;;;;;5.19;97.69;100698.28;2108060;28;20040;-67
2022/01/31 04:46:30;;;;;;;6.87;1.13;;;;;;;5.18;98.21;100681.09;2107943;28;20023;-66
2022/01/31 04:47:30;;;;;;;7.10;2.20;;;;;;;5.17;96.67;100700.94;2108012;28;20035;-67
2022/01/31 04:48:31;;;;;;;5.57;2.07;;;;;;;5.20;97.64;100698.25;2108043;28;20091;-66
2022/01/31 04:49:34;;;;;;;5.90;1.33;;;;;;;5.19;96.83;100699.16;2108003;28;20081;-66